createdAt,value
2022-10-16T00:00:31.429Z,10.43
2022-10-16T00:02:58.170Z,9.47
2022-10-16T00:05:25.039Z,8.20
2022-10-16T00:07:51.737Z,9.60
2022-10-16T00:10:18.415Z,10.27
2022-10-16T00:12:45.332Z,9.00
2022-10-16T00:15:12.098Z,8.60
2022-10-16T00:17:38.728Z,8.83
2022-10-16T00:20:06.126Z,9.10
2022-10-16T00:22:33.773Z,8.43
2022-10-16T00:25:00.416Z,8.23
2022-10-16T00:27:27.102Z,8.40
2022-10-16T00:29:53.751Z,8.47
2022-10-16T00:32:21.426Z,8.40
2022-10-16T00:34:48.085Z,8.10
2022-10-16T00:37:15.024Z,8.57
2022-10-16T00:42:29.367Z,8.37
2022-10-16T00:44:58.384Z,7.70
2022-10-16T00:47:52.513Z,7.13
2022-10-16T00:50:30.895Z,7.47
2022-10-16T00:52:59.644Z,7.70
2022-10-16T00:55:28.913Z,7.10
2022-10-16T00:57:55.618Z,6.70
2022-10-16T01:00:25.564Z,6.87
2022-10-16T01:02:57.558Z,7.27
2022-10-16T01:05:31.054Z,6.10
2022-10-16T01:08:09.481Z,6.37
2022-10-16T01:10:38.412Z,7.03
2022-10-16T01:13:15.583Z,6.67
2022-10-16T01:15:57.221Z,6.63
2022-10-16T01:18:29.342Z,6.47
2022-10-16T01:21:05.072Z,7.03
2022-10-16T01:23:34.659Z,7.10
2022-10-16T01:26:29.166Z,7.67
2022-10-16T01:29:08.270Z,7.03
2022-10-16T01:31:40.442Z,7.30
2022-10-16T01:34:23.819Z,6.90
2022-10-16T01:37:05.698Z,7.47
2022-10-16T01:39:36.136Z,6.90
2022-10-16T01:42:09.492Z,7.23
2022-10-16T01:44:38.755Z,6.83
2022-10-16T01:47:08.473Z,7.47
2022-10-16T01:49:39.184Z,6.90
2022-10-16T01:52:14.147Z,7.50
2022-10-16T01:54:43.406Z,7.00
2022-10-16T01:57:12.107Z,7.47
2022-10-16T01:59:45.180Z,7.87
2022-10-16T02:02:14.025Z,7.23
2022-10-16T02:04:47.096Z,7.40
2022-10-16T02:07:14.655Z,7.90
2022-10-16T02:09:41.834Z,6.93
2022-10-16T02:12:36.510Z,7.07
2022-10-16T02:15:03.832Z,7.80
2022-10-16T02:17:30.591Z,8.00
2022-10-16T02:19:59.029Z,7.63
2022-10-16T02:22:33.719Z,7.23
2022-10-16T02:25:06.299Z,8.00
2022-10-16T02:27:40.272Z,8.13
2022-10-16T02:30:36.161Z,7.70
2022-10-16T02:33:06.097Z,7.07
2022-10-16T02:35:33.614Z,6.87
2022-10-16T02:38:00.501Z,7.13
2022-10-16T02:40:28.275Z,7.93
2022-10-16T02:42:56.167Z,7.20
2022-10-16T02:45:24.155Z,7.20
2022-10-16T02:47:50.945Z,6.93
2022-10-16T02:50:17.841Z,6.93
2022-10-16T02:52:44.529Z,7.63
2022-10-16T02:55:11.174Z,7.60
2022-10-16T02:57:38.171Z,7.07
2022-10-16T03:00:06.253Z,6.80
2022-10-16T03:02:32.943Z,7.57
2022-10-16T03:04:59.590Z,6.57
2022-10-16T03:07:26.561Z,7.33
2022-10-16T03:09:53.453Z,6.73
2022-10-16T03:12:20.047Z,7.13
2022-10-16T03:14:46.903Z,7.00
2022-10-16T03:17:14.128Z,6.67
2022-10-16T03:19:40.787Z,6.23
2022-10-16T03:22:07.406Z,6.93
2022-10-16T03:24:33.998Z,7.20
2022-10-16T03:27:01.269Z,6.77
2022-10-16T03:29:28.708Z,6.50
2022-10-16T03:31:55.332Z,6.80
2022-10-16T03:34:22.016Z,6.27
2022-10-16T03:36:48.890Z,5.83
2022-10-16T03:39:15.677Z,6.00
2022-10-16T03:41:42.239Z,5.70
2022-10-16T03:44:08.860Z,6.07
2022-10-16T03:46:35.677Z,5.30
2022-10-16T03:49:04.844Z,5.73
2022-10-16T03:51:34.035Z,6.10
2022-10-16T03:54:00.661Z,5.70
2022-10-16T03:56:27.287Z,4.80
2022-10-16T03:58:53.898Z,5.07
2022-10-16T04:01:20.592Z,5.00
2022-10-16T04:03:47.210Z,4.93
2022-10-16T04:06:13.872Z,4.63
2022-10-16T04:08:43.034Z,4.60
2022-10-16T04:11:09.642Z,4.63
2022-10-16T04:13:36.356Z,4.70
2022-10-16T04:16:03.266Z,4.10
2022-10-16T04:18:30.098Z,3.60
2022-10-16T04:20:56.714Z,3.70
2022-10-16T04:23:24.449Z,4.03
2022-10-16T04:25:51.743Z,4.10
2022-10-16T04:28:18.500Z,3.97
2022-10-16T04:30:45.250Z,3.73
2022-10-16T04:33:11.964Z,3.53
2022-10-16T04:35:38.582Z,3.83
2022-10-16T04:38:05.429Z,3.90
2022-10-16T04:40:37.308Z,3.57
2022-10-16T04:43:05.217Z,3.40
2022-10-16T04:45:31.926Z,3.10
2022-10-16T04:47:59.575Z,3.20
2022-10-16T04:50:26.709Z,2.40
2022-10-16T04:52:53.372Z,3.57
2022-10-16T04:55:20.089Z,2.90
2022-10-16T04:57:46.750Z,3.00
2022-10-16T05:00:13.965Z,2.60
2022-10-16T05:02:40.702Z,2.80
2022-10-16T05:05:07.961Z,2.83
2022-10-16T05:07:34.626Z,2.87
2022-10-16T05:10:01.357Z,2.43
2022-10-16T05:12:27.995Z,3.07
2022-10-16T05:14:59.311Z,2.93
2022-10-16T05:17:27.104Z,2.73
2022-10-16T05:19:54.100Z,2.43
2022-10-16T05:22:20.875Z,2.63
2022-10-16T05:24:47.574Z,2.47
2022-10-16T05:27:19.837Z,2.80
2022-10-16T05:29:48.005Z,2.50
2022-10-16T05:32:15.789Z,2.73
2022-10-16T05:34:42.530Z,2.57
2022-10-16T05:37:09.868Z,2.53
2022-10-16T05:39:37.901Z,2.40
2022-10-16T05:42:05.834Z,3.03
2022-10-16T05:47:04.387Z,2.20
2022-10-16T05:49:31.160Z,3.10
2022-10-16T05:51:57.831Z,2.40
2022-10-16T05:54:24.553Z,2.50
2022-10-16T05:56:51.199Z,2.40
2022-10-16T05:59:17.893Z,2.60
2022-10-16T06:01:44.984Z,2.90
2022-10-16T06:06:38.748Z,2.47
2022-10-16T06:09:05.693Z,6.43
2022-10-16T06:11:34.433Z,5.73
2022-10-16T06:14:03.724Z,6.23
2022-10-16T06:16:30.505Z,2.63
2022-10-16T06:18:57.162Z,4.13
2022-10-16T06:21:26.501Z,2.40
2022-10-16T06:23:54.054Z,2.30
2022-10-16T06:26:23.735Z,1.93
2022-10-16T06:28:51.156Z,2.27
2022-10-16T06:31:18.978Z,2.20
2022-10-16T06:33:48.014Z,2.70
2022-10-16T06:36:17.229Z,2.30
2022-10-16T06:38:44.729Z,2.93
2022-10-16T06:41:14.283Z,2.20
2022-10-16T06:43:41.085Z,2.00
2022-10-16T06:46:11.110Z,1.97
2022-10-16T06:48:38.085Z,2.00
2022-10-16T06:51:07.462Z,2.27
2022-10-16T06:53:39.960Z,2.30
2022-10-16T06:56:27.143Z,2.10
2022-10-16T06:58:55.183Z,1.83
2022-10-16T07:01:24.010Z,1.73
2022-10-16T07:03:51.404Z,2.27
2022-10-16T07:06:20.671Z,2.10
2022-10-16T07:08:48.317Z,2.20
2022-10-16T07:11:17.940Z,1.80
2022-10-16T07:13:49.325Z,1.80
2022-10-16T07:16:21.646Z,2.00
2022-10-16T07:18:50.035Z,1.80
2022-10-16T07:21:20.351Z,2.10
2022-10-16T07:23:54.707Z,2.10
2022-10-16T07:26:22.139Z,1.93
2022-10-16T07:28:49.749Z,2.20
2022-10-16T07:31:17.588Z,2.10
2022-10-16T07:33:46.165Z,1.90
2022-10-16T07:36:16.276Z,2.40
2022-10-16T07:38:43.744Z,2.10
2022-10-16T07:41:13.322Z,2.97
2022-10-16T07:43:40.548Z,2.30
2022-10-16T07:46:07.426Z,2.10
2022-10-16T07:48:35.383Z,2.57
2022-10-16T07:51:04.889Z,3.00
2022-10-16T07:53:32.738Z,2.50
2022-10-16T07:56:05.364Z,2.73
2022-10-16T07:58:33.195Z,2.77
2022-10-16T08:01:00.159Z,2.20
2022-10-16T08:03:26.867Z,2.50
2022-10-16T08:05:53.705Z,2.30
2022-10-16T08:08:21.041Z,2.43
2022-10-16T08:10:51.672Z,2.30
2022-10-16T08:13:21.801Z,2.80
2022-10-16T08:15:48.667Z,2.37
2022-10-16T08:18:16.422Z,2.00
2022-10-16T08:20:44.082Z,2.50
2022-10-16T08:23:12.950Z,2.20
2022-10-16T08:25:40.268Z,2.70
2022-10-16T08:28:08.897Z,3.17
2022-10-16T08:30:35.933Z,2.80
2022-10-16T08:33:02.841Z,2.90
2022-10-16T08:35:29.839Z,2.67
2022-10-16T08:37:56.504Z,3.23
2022-10-16T08:40:34.681Z,3.13
2022-10-16T08:43:06.752Z,3.30
2022-10-16T08:45:58.222Z,3.30
2022-10-16T08:48:34.749Z,3.10
2022-10-16T08:51:04.048Z,3.27
2022-10-16T08:53:58.706Z,2.87
2022-10-16T08:56:26.919Z,3.33
2022-10-16T08:58:58.228Z,3.53
2022-10-16T09:01:41.781Z,3.17
2022-10-16T09:04:14.408Z,3.20
2022-10-16T09:06:46.945Z,2.80
2022-10-16T09:09:39.741Z,2.93
2022-10-16T09:12:13.237Z,2.70
2022-10-16T09:14:58.956Z,3.17
2022-10-16T09:17:47.040Z,2.80
2022-10-16T09:20:26.771Z,3.40
2022-10-16T09:23:13.419Z,3.47
2022-10-16T09:25:42.201Z,3.27
2022-10-16T09:28:10.515Z,2.67
2022-10-16T09:30:38.736Z,2.90
2022-10-16T09:33:06.032Z,2.50
2022-10-16T09:35:40.348Z,2.47
2022-10-16T09:38:08.180Z,3.07
2022-10-16T09:40:36.845Z,3.03
2022-10-16T09:43:29.782Z,2.40
2022-10-16T09:46:02.894Z,2.67
2022-10-16T09:48:45.194Z,2.43
2022-10-16T09:51:21.023Z,3.43
2022-10-16T09:53:48.113Z,3.57
2022-10-16T09:56:30.358Z,2.47
2022-10-16T09:59:00.110Z,2.30
2022-10-16T10:01:40.053Z,2.53
2022-10-16T10:04:08.145Z,3.00
2022-10-16T10:06:42.304Z,2.60
2022-10-16T10:09:20.454Z,2.60
2022-10-16T10:14:34.539Z,2.87
2022-10-16T10:17:07.177Z,3.27
2022-10-16T10:20:04.476Z,2.60
2022-10-16T10:22:40.296Z,2.90
2022-10-16T10:25:13.315Z,2.83
2022-10-16T10:28:18.971Z,2.70
2022-10-16T10:30:54.611Z,2.80
2022-10-16T10:33:38.316Z,2.97
2022-10-16T10:36:11.166Z,2.80
2022-10-16T10:38:50.951Z,2.70
2022-10-16T10:42:09.995Z,2.27
2022-10-16T10:45:09.490Z,2.37
2022-10-16T10:47:39.099Z,2.77
2022-10-16T10:50:23.939Z,2.40
2022-10-16T10:52:56.690Z,2.77
2022-10-16T10:55:39.292Z,2.50
2022-10-16T10:58:15.915Z,2.90
2022-10-16T11:01:06.744Z,2.40
2022-10-16T11:03:39.268Z,2.57
2022-10-16T11:06:16.138Z,2.40
2022-10-16T11:08:49.999Z,2.30
2022-10-16T11:11:24.365Z,2.33
2022-10-16T11:13:51.031Z,2.13
2022-10-16T11:16:24.814Z,2.20
2022-10-16T11:19:04.216Z,1.80
2022-10-16T11:21:40.668Z,1.87
2022-10-16T11:24:24.608Z,1.60
2022-10-16T11:26:54.954Z,2.10
2022-10-16T11:29:28.366Z,1.80
2022-10-16T11:32:06.674Z,1.57
2022-10-16T11:34:39.852Z,1.70
2022-10-16T11:37:21.550Z,1.70
2022-10-16T11:39:49.634Z,1.83
2022-10-16T11:42:25.884Z,1.57
2022-10-16T11:45:13.234Z,1.87
2022-10-16T11:48:26.928Z,1.87
2022-10-16T11:51:10.292Z,1.50
2022-10-16T11:54:35.446Z,1.80
2022-10-16T11:57:12.573Z,1.70
2022-10-16T12:00:08.185Z,2.60
2022-10-16T12:02:55.150Z,1.97
2022-10-16T12:05:32.369Z,1.63
2022-10-16T12:08:13.560Z,1.40
2022-10-16T12:10:42.793Z,1.97
2022-10-16T12:13:31.533Z,1.60
2022-10-16T12:16:13.297Z,1.80
2022-10-16T12:18:42.180Z,2.10
2022-10-16T12:21:09.845Z,1.70
2022-10-16T12:23:49.872Z,2.00
2022-10-16T12:26:25.793Z,2.10
2022-10-16T12:28:55.201Z,2.07
2022-10-16T12:31:23.160Z,1.77
2022-10-16T12:34:00.642Z,1.50
2022-10-16T12:36:43.842Z,1.87
2022-10-16T14:44:45.359Z,1.77
2022-10-16T15:27:03.644Z,2.83
2022-10-16T21:27:38.801Z,3.13
2022-10-16T23:53:22.228Z,3.23
